sensor_id;sensor_type;location;lat;lon;timestamp;P1;durP1;ratioP1;P2;durP2;ratioP2
32780;SDS011;19136;47.032;15.502;2022-12-18T00:01:20;54.83;;;24.45;;
32780;SDS011;19136;47.032;15.502;2022-12-18T00:03:47;51.85;;;23.85;;
32780;SDS011;19136;47.032;15.502;2022-12-18T00:06:13;48.15;;;22.98;;
32780;SDS011;19136;47.032;15.502;2022-12-18T00:08:39;44.30;;;20.98;;
32780;SDS011;19136;47.032;15.502;2022-12-18T00:11:05;45.67;;;20.77;;
32780;SDS011;19136;47.032;15.502;2022-12-18T00:13:32;48.63;;;21.52;;
32780;SDS011;19136;47.032;15.502;2022-12-18T00:16:05;47.45;;;21.50;;
32780;SDS011;19136;47.032;15.502;2022-12-18T00:18:35;46.38;;;21.35;;
32780;SDS011;19136;47.032;15.502;2022-12-18T00:21:02;45.03;;;20.85;;
32780;SDS011;19136;47.032;15.502;2022-12-18T00:23:29;44.85;;;19.17;;
32780;SDS011;19136;47.032;15.502;2022-12-18T00:25:58;40.25;;;18.10;;
32780;SDS011;19136;47.032;15.502;2022-12-18T00:28:27;40.22;;;19.52;;
32780;SDS011;19136;47.032;15.502;2022-12-18T00:31:02;37.65;;;16.73;;
32780;SDS011;19136;47.032;15.502;2022-12-18T00:33:29;33.15;;;15.10;;
32780;SDS011;19136;47.032;15.502;2022-12-18T00:35:59;36.47;;;16.38;;
32780;SDS011;19136;47.032;15.502;2022-12-18T00:38:32;30.75;;;14.90;;
32780;SDS011;19136;47.032;15.502;2022-12-18T00:40:58;37.90;;;15.05;;
32780;SDS011;19136;47.032;15.502;2022-12-18T00:43:24;37.28;;;16.40;;
32780;SDS011;19136;47.032;15.502;2022-12-18T00:45:50;31.52;;;15.30;;
32780;SDS011;19136;47.032;15.502;2022-12-18T00:48:15;30.55;;;15.02;;
32780;SDS011;19136;47.032;15.502;2022-12-18T00:50:41;40.65;;;17.95;;
32780;SDS011;19136;47.032;15.502;2022-12-18T00:53:06;37.70;;;15.43;;
32780;SDS011;19136;47.032;15.502;2022-12-18T00:55:32;33.70;;;14.90;;
32780;SDS011;19136;47.032;15.502;2022-12-18T00:57:57;33.20;;;15.55;;
32780;SDS011;19136;47.032;15.502;2022-12-18T01:00:23;34.08;;;15.88;;
32780;SDS011;19136;47.032;15.502;2022-12-18T01:02:49;31.65;;;14.93;;
32780;SDS011;19136;47.032;15.502;2022-12-18T01:05:14;33.75;;;14.07;;
32780;SDS011;19136;47.032;15.502;2022-12-18T01:07:40;31.13;;;13.40;;
32780;SDS011;19136;47.032;15.502;2022-12-18T01:10:06;31.45;;;14.95;;
32780;SDS011;19136;47.032;15.502;2022-12-18T01:12:33;27.20;;;12.55;;
32780;SDS011;19136;47.032;15.502;2022-12-18T01:14:58;31.45;;;13.55;;
32780;SDS011;19136;47.032;15.502;2022-12-18T01:17:24;35.42;;;15.80;;
32780;SDS011;19136;47.032;15.502;2022-12-18T01:19:49;34.05;;;14.75;;
32780;SDS011;19136;47.032;15.502;2022-12-18T01:22:15;30.17;;;14.07;;
32780;SDS011;19136;47.032;15.502;2022-12-18T01:24:40;30.50;;;14.50;;
32780;SDS011;19136;47.032;15.502;2022-12-18T01:27:06;31.27;;;13.98;;
32780;SDS011;19136;47.032;15.502;2022-12-18T01:29:32;28.67;;;14.75;;
32780;SDS011;19136;47.032;15.502;2022-12-18T01:32:00;32.90;;;15.90;;
32780;SDS011;19136;47.032;15.502;2022-12-18T01:34:26;29.52;;;14.32;;
32780;SDS011;19136;47.032;15.502;2022-12-18T01:36:51;35.17;;;16.30;;
32780;SDS011;19136;47.032;15.502;2022-12-18T01:39:19;36.30;;;15.75;;
32780;SDS011;19136;47.032;15.502;2022-12-18T01:41:45;37.45;;;16.17;;
32780;SDS011;19136;47.032;15.502;2022-12-18T01:49:50;40.33;;;16.80;;
32780;SDS011;19136;47.032;15.502;2022-12-18T01:52:16;36.63;;;16.83;;
32780;SDS011;19136;47.032;15.502;2022-12-18T01:54:42;37.55;;;16.35;;
32780;SDS011;19136;47.032;15.502;2022-12-18T01:57:08;34.67;;;15.82;;
32780;SDS011;19136;47.032;15.502;2022-12-18T01:59:34;36.47;;;15.82;;
32780;SDS011;19136;47.032;15.502;2022-12-18T02:02:00;38.88;;;16.45;;
32780;SDS011;19136;47.032;15.502;2022-12-18T02:04:26;42.33;;;18.23;;
32780;SDS011;19136;47.032;15.502;2022-12-18T02:09:50;45.05;;;18.00;;
32780;SDS011;19136;47.032;15.502;2022-12-18T02:12:23;39.13;;;16.65;;
32780;SDS011;19136;47.032;15.502;2022-12-18T02:15:13;35.38;;;16.15;;
32780;SDS011;19136;47.032;15.502;2022-12-18T02:18:05;36.03;;;16.13;;
32780;SDS011;19136;47.032;15.502;2022-12-18T02:32:23;39.40;;;17.42;;
32780;SDS011;19136;47.032;15.502;2022-12-18T02:34:51;41.25;;;18.48;;
32780;SDS011;19136;47.032;15.502;2022-12-18T02:37:18;38.78;;;18.05;;
32780;SDS011;19136;47.032;15.502;2022-12-18T02:39:44;47.97;;;19.25;;
32780;SDS011;19136;47.032;15.502;2022-12-18T02:42:11;42.03;;;18.48;;
32780;SDS011;19136;47.032;15.502;2022-12-18T02:44:44;43.50;;;18.98;;
32780;SDS011;19136;47.032;15.502;2022-12-18T02:47:11;48.78;;;19.45;;
32780;SDS011;19136;47.032;15.502;2022-12-18T03:00:52;52.85;;;22.88;;
32780;SDS011;19136;47.032;15.502;2022-12-18T03:03:24;52.40;;;20.85;;
32780;SDS011;19136;47.032;15.502;2022-12-18T03:05:57;52.85;;;21.33;;
32780;SDS011;19136;47.032;15.502;2022-12-18T03:08:28;45.75;;;19.63;;
32780;SDS011;19136;47.032;15.502;2022-12-18T03:10:58;52.50;;;21.80;;
32780;SDS011;19136;47.032;15.502;2022-12-18T03:13:40;49.60;;;20.30;;
32780;SDS011;19136;47.032;15.502;2022-12-18T03:16:09;48.05;;;20.63;;
32780;SDS011;19136;47.032;15.502;2022-12-18T03:18:45;50.75;;;21.40;;
32780;SDS011;19136;47.032;15.502;2022-12-18T03:21:13;44.58;;;20.50;;
32780;SDS011;19136;47.032;15.502;2022-12-18T03:23:43;43.45;;;19.40;;
32780;SDS011;19136;47.032;15.502;2022-12-18T03:26:11;54.00;;;20.00;;
32780;SDS011;19136;47.032;15.502;2022-12-18T03:28:43;55.13;;;22.20;;
32780;SDS011;19136;47.032;15.502;2022-12-18T03:31:17;45.53;;;19.45;;
32780;SDS011;19136;47.032;15.502;2022-12-18T03:33:45;51.53;;;21.50;;
32780;SDS011;19136;47.032;15.502;2022-12-18T03:36:15;50.83;;;20.58;;
32780;SDS011;19136;47.032;15.502;2022-12-18T03:38:41;49.42;;;19.77;;
32780;SDS011;19136;47.032;15.502;2022-12-18T03:41:10;55.25;;;22.45;;
32780;SDS011;19136;47.032;15.502;2022-12-18T03:44:14;43.85;;;18.73;;
32780;SDS011;19136;47.032;15.502;2022-12-18T03:47:08;51.33;;;22.00;;
32780;SDS011;19136;47.032;15.502;2022-12-18T03:52:28;38.95;;;18.05;;
32780;SDS011;19136;47.032;15.502;2022-12-18T03:54:58;48.20;;;19.67;;
32780;SDS011;19136;47.032;15.502;2022-12-18T03:57:25;42.17;;;18.98;;
32780;SDS011;19136;47.032;15.502;2022-12-18T04:00:26;48.78;;;21.15;;
32780;SDS011;19136;47.032;15.502;2022-12-18T04:02:48;51.33;;;19.98;;
32780;SDS011;19136;47.032;15.502;2022-12-18T04:05:17;52.22;;;20.60;;
32780;SDS011;19136;47.032;15.502;2022-12-18T04:07:43;60.28;;;23.10;;
32780;SDS011;19136;47.032;15.502;2022-12-18T04:10:09;55.78;;;21.98;;
32780;SDS011;19136;47.032;15.502;2022-12-18T04:12:36;48.95;;;20.27;;
32780;SDS011;19136;47.032;15.502;2022-12-18T04:15:02;50.25;;;20.75;;
32780;SDS011;19136;47.032;15.502;2022-12-18T04:17:28;48.60;;;20.35;;
32780;SDS011;19136;47.032;15.502;2022-12-18T04:19:53;50.38;;;21.38;;
32780;SDS011;19136;47.032;15.502;2022-12-18T04:22:19;45.70;;;20.25;;
32780;SDS011;19136;47.032;15.502;2022-12-18T04:24:44;46.30;;;19.42;;
32780;SDS011;19136;47.032;15.502;2022-12-18T04:27:10;47.20;;;19.83;;
32780;SDS011;19136;47.032;15.502;2022-12-18T04:29:35;51.30;;;21.02;;
32780;SDS011;19136;47.032;15.502;2022-12-18T04:32:01;48.58;;;19.90;;
32780;SDS011;19136;47.032;15.502;2022-12-18T04:34:26;49.05;;;20.58;;
32780;SDS011;19136;47.032;15.502;2022-12-18T04:36:52;44.58;;;18.27;;
32780;SDS011;19136;47.032;15.502;2022-12-18T04:39:17;45.38;;;18.83;;
32780;SDS011;19136;47.032;15.502;2022-12-18T04:41:43;48.30;;;19.63;;
32780;SDS011;19136;47.032;15.502;2022-12-18T04:44:08;46.58;;;19.15;;
32780;SDS011;19136;47.032;15.502;2022-12-18T04:46:34;45.15;;;20.02;;
32780;SDS011;19136;47.032;15.502;2022-12-18T04:48:59;60.75;;;24.02;;
32780;SDS011;19136;47.032;15.502;2022-12-18T04:51:25;54.50;;;22.15;;
32780;SDS011;19136;47.032;15.502;2022-12-18T04:53:50;45.20;;;19.83;;
32780;SDS011;19136;47.032;15.502;2022-12-18T04:56:16;48.22;;;20.98;;
32780;SDS011;19136;47.032;15.502;2022-12-18T04:58:43;48.17;;;21.48;;
32780;SDS011;19136;47.032;15.502;2022-12-18T05:01:10;45.38;;;19.55;;
32780;SDS011;19136;47.032;15.502;2022-12-18T05:03:37;44.38;;;19.10;;
32780;SDS011;19136;47.032;15.502;2022-12-18T05:06:03;46.03;;;19.60;;
32780;SDS011;19136;47.032;15.502;2022-12-18T05:08:32;41.63;;;17.27;;
32780;SDS011;19136;47.032;15.502;2022-12-18T05:11:08;42.83;;;17.92;;
32780;SDS011;19136;47.032;15.502;2022-12-18T05:13:35;42.83;;;18.70;;
32780;SDS011;19136;47.032;15.502;2022-12-18T05:16:01;40.88;;;19.65;;
32780;SDS011;19136;47.032;15.502;2022-12-18T05:18:27;39.83;;;18.27;;
32780;SDS011;19136;47.032;15.502;2022-12-18T05:20:53;47.03;;;20.17;;
32780;SDS011;19136;47.032;15.502;2022-12-18T05:23:19;46.55;;;20.33;;
32780;SDS011;19136;47.032;15.502;2022-12-18T05:25:52;49.35;;;20.25;;
32780;SDS011;19136;47.032;15.502;2022-12-18T05:28:22;51.22;;;21.67;;
32780;SDS011;19136;47.032;15.502;2022-12-18T05:30:52;48.50;;;20.65;;
32780;SDS011;19136;47.032;15.502;2022-12-18T05:33:19;54.92;;;21.52;;
32780;SDS011;19136;47.032;15.502;2022-12-18T05:35:49;55.63;;;21.70;;
32780;SDS011;19136;47.032;15.502;2022-12-18T05:38:16;53.67;;;21.67;;
32780;SDS011;19136;47.032;15.502;2022-12-18T05:40:42;59.33;;;21.90;;
32780;SDS011;19136;47.032;15.502;2022-12-18T05:43:08;60.95;;;23.38;;
32780;SDS011;19136;47.032;15.502;2022-12-18T05:45:36;55.65;;;22.02;;
32780;SDS011;19136;47.032;15.502;2022-12-18T05:48:03;59.97;;;23.30;;
32780;SDS011;19136;47.032;15.502;2022-12-18T05:50:29;55.33;;;24.02;;
32780;SDS011;19136;47.032;15.502;2022-12-18T05:52:54;62.65;;;23.83;;
32780;SDS011;19136;47.032;15.502;2022-12-18T05:55:20;60.45;;;22.63;;
32780;SDS011;19136;47.032;15.502;2022-12-18T05:57:45;53.63;;;22.35;;
32780;SDS011;19136;47.032;15.502;2022-12-18T06:00:11;58.50;;;22.02;;
32780;SDS011;19136;47.032;15.502;2022-12-18T06:02:37;57.10;;;21.75;;
32780;SDS011;19136;47.032;15.502;2022-12-18T06:05:03;79.95;;;26.05;;
32780;SDS011;19136;47.032;15.502;2022-12-18T06:07:28;55.83;;;21.33;;
32780;SDS011;19136;47.032;15.502;2022-12-18T06:09:54;56.25;;;23.42;;
32780;SDS011;19136;47.032;15.502;2022-12-18T06:12:19;53.42;;;21.73;;
32780;SDS011;19136;47.032;15.502;2022-12-18T06:14:46;53.20;;;21.30;;
32780;SDS011;19136;47.032;15.502;2022-12-18T06:17:11;52.95;;;21.48;;
32780;SDS011;19136;47.032;15.502;2022-12-18T06:19:37;53.22;;;22.90;;
32780;SDS011;19136;47.032;15.502;2022-12-18T06:22:05;50.47;;;22.25;;
32780;SDS011;19136;47.032;15.502;2022-12-18T06:24:33;54.50;;;21.55;;
32780;SDS011;19136;47.032;15.502;2022-12-18T06:26:59;47.75;;;20.00;;
32780;SDS011;19136;47.032;15.502;2022-12-18T06:29:24;48.20;;;20.67;;
32780;SDS011;19136;47.032;15.502;2022-12-18T06:31:50;50.33;;;19.20;;
32780;SDS011;19136;47.032;15.502;2022-12-18T06:34:15;44.08;;;19.15;;
32780;SDS011;19136;47.032;15.502;2022-12-18T06:36:41;45.20;;;19.50;;
32780;SDS011;19136;47.032;15.502;2022-12-18T06:39:06;49.55;;;19.10;;
32780;SDS011;19136;47.032;15.502;2022-12-18T06:41:32;44.30;;;19.38;;
32780;SDS011;19136;47.032;15.502;2022-12-18T06:43:57;40.15;;;18.75;;
32780;SDS011;19136;47.032;15.502;2022-12-18T06:46:22;35.50;;;15.80;;
32780;SDS011;19136;47.032;15.502;2022-12-18T06:48:48;37.80;;;16.83;;
32780;SDS011;19136;47.032;15.502;2022-12-18T06:51:15;44.08;;;19.23;;
32780;SDS011;19136;47.032;15.502;2022-12-18T06:53:42;48.30;;;19.20;;
32780;SDS011;19136;47.032;15.502;2022-12-18T06:56:07;42.58;;;19.67;;
32780;SDS011;19136;47.032;15.502;2022-12-18T06:58:33;41.83;;;17.63;;
32780;SDS011;19136;47.032;15.502;2022-12-18T07:00:59;38.25;;;18.20;;
32780;SDS011;19136;47.032;15.502;2022-12-18T07:03:28;32.75;;;16.55;;
32780;SDS011;19136;47.032;15.502;2022-12-18T07:05:54;39.70;;;18.08;;
32780;SDS011;19136;47.032;15.502;2022-12-18T07:08:19;41.42;;;18.35;;
32780;SDS011;19136;47.032;15.502;2022-12-18T07:10:45;46.35;;;20.40;;
32780;SDS011;19136;47.032;15.502;2022-12-18T07:13:10;51.17;;;20.85;;
32780;SDS011;19136;47.032;15.502;2022-12-18T07:15:36;41.10;;;18.27;;
32780;SDS011;19136;47.032;15.502;2022-12-18T07:18:01;43.42;;;17.45;;
32780;SDS011;19136;47.032;15.502;2022-12-18T07:20:27;41.90;;;16.58;;
32780;SDS011;19136;47.032;15.502;2022-12-18T07:22:52;39.70;;;16.80;;
32780;SDS011;19136;47.032;15.502;2022-12-18T07:25:18;49.40;;;19.33;;
32780;SDS011;19136;47.032;15.502;2022-12-18T07:27:44;38.35;;;17.17;;
32780;SDS011;19136;47.032;15.502;2022-12-18T07:30:09;38.05;;;17.20;;
32780;SDS011;19136;47.032;15.502;2022-12-18T07:32:35;38.00;;;16.88;;
32780;SDS011;19136;47.032;15.502;2022-12-18T07:35:00;31.63;;;15.70;;
32780;SDS011;19136;47.032;15.502;2022-12-18T07:37:26;38.33;;;17.77;;
32780;SDS011;19136;47.032;15.502;2022-12-18T07:39:52;40.83;;;18.25;;
32780;SDS011;19136;47.032;15.502;2022-12-18T07:42:17;39.28;;;17.65;;
32780;SDS011;19136;47.032;15.502;2022-12-18T07:44:58;35.65;;;16.30;;
32780;SDS011;19136;47.032;15.502;2022-12-18T07:47:24;39.95;;;17.95;;
32780;SDS011;19136;47.032;15.502;2022-12-18T07:49:50;40.30;;;19.23;;
32780;SDS011;19136;47.032;15.502;2022-12-18T07:52:15;38.20;;;18.63;;
32780;SDS011;19136;47.032;15.502;2022-12-18T07:54:41;41.40;;;17.75;;
32780;SDS011;19136;47.032;15.502;2022-12-18T07:57:07;42.17;;;18.17;;
32780;SDS011;19136;47.032;15.502;2022-12-18T07:59:33;39.50;;;19.13;;
32780;SDS011;19136;47.032;15.502;2022-12-18T08:01:58;40.22;;;18.60;;
32780;SDS011;19136;47.032;15.502;2022-12-18T08:04:24;35.72;;;18.00;;
32780;SDS011;19136;47.032;15.502;2022-12-18T08:06:50;44.90;;;17.50;;
32780;SDS011;19136;47.032;15.502;2022-12-18T08:09:16;36.97;;;16.77;;
32780;SDS011;19136;47.032;15.502;2022-12-18T08:11:41;36.22;;;16.92;;
32780;SDS011;19136;47.032;15.502;2022-12-18T08:14:07;32.78;;;15.60;;
32780;SDS011;19136;47.032;15.502;2022-12-18T08:16:33;32.33;;;15.75;;
32780;SDS011;19136;47.032;15.502;2022-12-18T08:18:58;32.78;;;15.57;;
32780;SDS011;19136;47.032;15.502;2022-12-18T08:21:25;33.33;;;15.55;;
32780;SDS011;19136;47.032;15.502;2022-12-18T08:23:52;33.63;;;15.95;;
32780;SDS011;19136;47.032;15.502;2022-12-18T08:26:19;34.88;;;16.20;;
32780;SDS011;19136;47.032;15.502;2022-12-18T08:28:45;32.53;;;16.17;;
32780;SDS011;19136;47.032;15.502;2022-12-18T08:31:11;37.85;;;16.27;;
32780;SDS011;19136;47.032;15.502;2022-12-18T08:33:37;36.78;;;14.85;;
32780;SDS011;19136;47.032;15.502;2022-12-18T08:36:04;32.20;;;15.13;;
32780;SDS011;19136;47.032;15.502;2022-12-18T08:38:30;33.10;;;14.90;;
32780;SDS011;19136;47.032;15.502;2022-12-18T08:41:00;30.08;;;13.68;;
32780;SDS011;19136;47.032;15.502;2022-12-18T08:43:33;28.90;;;13.75;;
32780;SDS011;19136;47.032;15.502;2022-12-18T08:46:17;30.38;;;14.07;;
32780;SDS011;19136;47.032;15.502;2022-12-18T08:48:43;30.48;;;15.27;;
32780;SDS011;19136;47.032;15.502;2022-12-18T08:51:09;30.10;;;14.98;;
32780;SDS011;19136;47.032;15.502;2022-12-18T08:53:35;28.98;;;14.38;;
32780;SDS011;19136;47.032;15.502;2022-12-18T08:56:02;25.63;;;13.50;;
32780;SDS011;19136;47.032;15.502;2022-12-18T08:58:28;29.50;;;14.73;;
32780;SDS011;19136;47.032;15.502;2022-12-18T09:00:53;28.88;;;13.98;;
32780;SDS011;19136;47.032;15.502;2022-12-18T09:03:19;32.90;;;14.45;;
32780;SDS011;19136;47.032;15.502;2022-12-18T09:05:47;31.30;;;14.13;;
32780;SDS011;19136;47.032;15.502;2022-12-18T09:08:13;33.00;;;14.38;;
32780;SDS011;19136;47.032;15.502;2022-12-18T09:10:45;25.42;;;13.23;;
32780;SDS011;19136;47.032;15.502;2022-12-18T09:13:11;26.95;;;12.50;;
32780;SDS011;19136;47.032;15.502;2022-12-18T09:15:55;25.98;;;12.68;;
32780;SDS011;19136;47.032;15.502;2022-12-18T09:18:22;26.58;;;13.30;;
32780;SDS011;19136;47.032;15.502;2022-12-18T09:20:48;23.33;;;12.15;;
32780;SDS011;19136;47.032;15.502;2022-12-18T09:23:15;26.85;;;13.38;;
32780;SDS011;19136;47.032;15.502;2022-12-18T09:25:40;30.80;;;14.52;;
32780;SDS011;19136;47.032;15.502;2022-12-18T09:28:09;34.17;;;14.77;;
32780;SDS011;19136;47.032;15.502;2022-12-18T09:30:40;36.35;;;15.70;;
32780;SDS011;19136;47.032;15.502;2022-12-18T09:33:08;31.05;;;15.48;;
32780;SDS011;19136;47.032;15.502;2022-12-18T09:35:36;32.80;;;16.17;;
32780;SDS011;19136;47.032;15.502;2022-12-18T09:38:02;40.13;;;17.40;;
32780;SDS011;19136;47.032;15.502;2022-12-18T09:40:29;47.90;;;19.40;;
32780;SDS011;19136;47.032;15.502;2022-12-18T09:43:07;39.45;;;19.00;;
32780;SDS011;19136;47.032;15.502;2022-12-18T09:45:43;39.20;;;16.92;;
32780;SDS011;19136;47.032;15.502;2022-12-18T09:48:25;43.90;;;19.05;;
32780;SDS011;19136;47.032;15.502;2022-12-18T09:50:55;50.25;;;21.95;;
32780;SDS011;19136;47.032;15.502;2022-12-18T09:53:24;46.60;;;21.65;;
32780;SDS011;19136;47.032;15.502;2022-12-18T09:55:51;46.38;;;21.67;;
32780;SDS011;19136;47.032;15.502;2022-12-18T09:58:30;44.47;;;20.55;;
32780;SDS011;19136;47.032;15.502;2022-12-18T10:01:00;48.80;;;21.67;;
32780;SDS011;19136;47.032;15.502;2022-12-18T10:03:25;44.03;;;20.27;;
32780;SDS011;19136;47.032;15.502;2022-12-18T10:08:52;50.78;;;23.83;;
32780;SDS011;19136;47.032;15.502;2022-12-18T10:14:09;52.47;;;23.23;;
32780;SDS011;19136;47.032;15.502;2022-12-18T10:22:10;51.40;;;23.27;;
32780;SDS011;19136;47.032;15.502;2022-12-18T10:27:24;63.13;;;24.80;;
32780;SDS011;19136;47.032;15.502;2022-12-18T10:29:51;64.00;;;26.70;;
32780;SDS011;19136;47.032;15.502;2022-12-18T10:32:21;53.10;;;23.55;;
32780;SDS011;19136;47.032;15.502;2022-12-18T10:34:50;62.22;;;26.67;;
32780;SDS011;19136;47.032;15.502;2022-12-18T10:37:17;60.95;;;26.25;;
32780;SDS011;19136;47.032;15.502;2022-12-18T10:39:44;60.75;;;27.25;;
32780;SDS011;19136;47.032;15.502;2022-12-18T10:42:14;58.17;;;25.55;;
32780;SDS011;19136;47.032;15.502;2022-12-18T10:44:42;65.35;;;26.35;;
32780;SDS011;19136;47.032;15.502;2022-12-18T10:47:11;68.32;;;28.25;;
32780;SDS011;19136;47.032;15.502;2022-12-18T10:49:42;54.55;;;23.50;;
32780;SDS011;19136;47.032;15.502;2022-12-18T10:52:24;67.97;;;27.05;;
32780;SDS011;19136;47.032;15.502;2022-12-18T10:55:01;57.80;;;25.08;;
32780;SDS011;19136;47.032;15.502;2022-12-18T10:57:30;65.75;;;26.50;;
32780;SDS011;19136;47.032;15.502;2022-12-18T10:59:59;58.17;;;23.98;;
32780;SDS011;19136;47.032;15.502;2022-12-18T11:02:43;63.97;;;27.33;;
32780;SDS011;19136;47.032;15.502;2022-12-18T11:05:42;63.00;;;28.77;;
32780;SDS011;19136;47.032;15.502;2022-12-18T11:08:01;67.75;;;29.08;;
32780;SDS011;19136;47.032;15.502;2022-12-18T11:10:31;64.13;;;27.52;;
32780;SDS011;19136;47.032;15.502;2022-12-18T11:13:09;63.17;;;27.42;;
32780;SDS011;19136;47.032;15.502;2022-12-18T11:15:41;71.95;;;30.17;;
32780;SDS011;19136;47.032;15.502;2022-12-18T11:18:14;75.10;;;29.58;;
32780;SDS011;19136;47.032;15.502;2022-12-18T11:21:05;64.57;;;26.95;;
32780;SDS011;19136;47.032;15.502;2022-12-18T11:23:32;69.18;;;28.10;;
32780;SDS011;19136;47.032;15.502;2022-12-18T11:25:59;58.72;;;23.20;;
32780;SDS011;19136;47.032;15.502;2022-12-18T11:28:36;81.55;;;32.45;;
32780;SDS011;19136;47.032;15.502;2022-12-18T11:31:15;71.43;;;30.45;;
32780;SDS011;19136;47.032;15.502;2022-12-18T11:33:42;82.30;;;34.45;;
32780;SDS011;19136;47.032;15.502;2022-12-18T11:36:11;67.22;;;26.40;;
32780;SDS011;19136;47.032;15.502;2022-12-18T11:38:41;72.80;;;31.20;;
32780;SDS011;19136;47.032;15.502;2022-12-18T11:44:15;75.30;;;29.92;;
32780;SDS011;19136;47.032;15.502;2022-12-18T11:46:51;70.15;;;27.75;;
32780;SDS011;19136;47.032;15.502;2022-12-18T11:49:22;78.28;;;31.75;;
32780;SDS011;19136;47.032;15.502;2022-12-18T11:51:55;97.65;;;34.50;;
32780;SDS011;19136;47.032;15.502;2022-12-18T11:54:25;75.72;;;31.60;;
32780;SDS011;19136;47.032;15.502;2022-12-18T11:56:53;84.93;;;32.00;;
32780;SDS011;19136;47.032;15.502;2022-12-18T12:02:42;75.43;;;28.92;;
32780;SDS011;19136;47.032;15.502;2022-12-18T12:05:06;71.25;;;27.58;;
32780;SDS011;19136;47.032;15.502;2022-12-18T12:10:35;80.32;;;30.27;;
32780;SDS011;19136;47.032;15.502;2022-12-18T12:13:11;86.15;;;30.38;;
32780;SDS011;19136;47.032;15.502;2022-12-18T12:21:07;81.55;;;30.77;;
32780;SDS011;19136;47.032;15.502;2022-12-18T12:23:45;83.93;;;30.13;;
32780;SDS011;19136;47.032;15.502;2022-12-18T12:26:30;83.75;;;30.85;;
32780;SDS011;19136;47.032;15.502;2022-12-18T12:32:01;75.03;;;29.30;;
32780;SDS011;19136;47.032;15.502;2022-12-18T12:40:23;78.50;;;28.95;;
32780;SDS011;19136;47.032;15.502;2022-12-18T12:42:52;71.55;;;27.88;;
32780;SDS011;19136;47.032;15.502;2022-12-18T12:45:50;84.40;;;31.08;;
32780;SDS011;19136;47.032;15.502;2022-12-18T12:51:19;83.25;;;28.83;;
32780;SDS011;19136;47.032;15.502;2022-12-18T12:53:46;85.75;;;30.15;;
32780;SDS011;19136;47.032;15.502;2022-12-18T12:56:13;81.22;;;30.13;;
32780;SDS011;19136;47.032;15.502;2022-12-18T13:04:12;72.82;;;28.23;;
32780;SDS011;19136;47.032;15.502;2022-12-18T13:09:19;86.07;;;31.58;;
32780;SDS011;19136;47.032;15.502;2022-12-18T13:11:45;74.63;;;28.38;;
32780;SDS011;19136;47.032;15.502;2022-12-18T13:14:47;79.22;;;30.63;;
32780;SDS011;19136;47.032;15.502;2022-12-18T13:19:44;79.78;;;28.00;;
32780;SDS011;19136;47.032;15.502;2022-12-18T13:22:34;82.32;;;30.70;;
32780;SDS011;19136;47.032;15.502;2022-12-18T13:25:01;80.88;;;30.45;;
32780;SDS011;19136;47.032;15.502;2022-12-18T13:35:41;67.68;;;28.02;;
32780;SDS011;19136;47.032;15.502;2022-12-18T13:43:45;66.63;;;26.40;;
32780;SDS011;19136;47.032;15.502;2022-12-18T13:48:55;67.85;;;27.98;;
32780;SDS011;19136;47.032;15.502;2022-12-18T13:51:23;62.10;;;25.85;;
32780;SDS011;19136;47.032;15.502;2022-12-18T13:53:50;58.75;;;24.48;;
32780;SDS011;19136;47.032;15.502;2022-12-18T13:56:25;62.70;;;24.77;;
32780;SDS011;19136;47.032;15.502;2022-12-18T14:01:44;58.05;;;22.83;;
32780;SDS011;19136;47.032;15.502;2022-12-18T14:04:12;62.22;;;24.60;;
32780;SDS011;19136;47.032;15.502;2022-12-18T14:06:44;57.88;;;24.60;;
32780;SDS011;19136;47.032;15.502;2022-12-18T14:09:27;57.55;;;24.77;;
32780;SDS011;19136;47.032;15.502;2022-12-18T14:14:42;68.90;;;25.23;;
32780;SDS011;19136;47.032;15.502;2022-12-18T14:17:10;60.33;;;25.00;;
32780;SDS011;19136;47.032;15.502;2022-12-18T14:19:36;58.58;;;25.65;;
32780;SDS011;19136;47.032;15.502;2022-12-18T14:22:02;54.95;;;24.40;;
32780;SDS011;19136;47.032;15.502;2022-12-18T14:24:28;56.58;;;23.88;;
32780;SDS011;19136;47.032;15.502;2022-12-18T14:26:57;58.95;;;25.65;;
32780;SDS011;19136;47.032;15.502;2022-12-18T14:29:39;58.35;;;24.48;;
32780;SDS011;19136;47.032;15.502;2022-12-18T14:32:13;60.03;;;24.20;;
32780;SDS011;19136;47.032;15.502;2022-12-18T14:37:11;50.38;;;22.33;;
32780;SDS011;19136;47.032;15.502;2022-12-18T14:39:39;57.83;;;23.70;;
32780;SDS011;19136;47.032;15.502;2022-12-18T14:42:05;60.83;;;24.50;;
32780;SDS011;19136;47.032;15.502;2022-12-18T14:44:30;55.95;;;23.35;;
32780;SDS011;19136;47.032;15.502;2022-12-18T14:46:56;64.88;;;24.75;;
32780;SDS011;19136;47.032;15.502;2022-12-18T14:49:29;65.47;;;23.77;;
32780;SDS011;19136;47.032;15.502;2022-12-18T14:52:00;62.47;;;26.02;;
32780;SDS011;19136;47.032;15.502;2022-12-18T14:54:27;57.97;;;24.58;;
32780;SDS011;19136;47.032;15.502;2022-12-18T14:59:30;65.80;;;25.40;;
32780;SDS011;19136;47.032;15.502;2022-12-18T15:04:36;59.65;;;25.30;;
32780;SDS011;19136;47.032;15.502;2022-12-18T15:14:59;62.60;;;26.08;;
32780;SDS011;19136;47.032;15.502;2022-12-18T15:17:26;63.95;;;27.10;;
32780;SDS011;19136;47.032;15.502;2022-12-18T15:19:53;62.00;;;26.13;;
32780;SDS011;19136;47.032;15.502;2022-12-18T15:22:26;62.15;;;26.38;;
32780;SDS011;19136;47.032;15.502;2022-12-18T15:25:28;65.35;;;26.83;;
32780;SDS011;19136;47.032;15.502;2022-12-18T15:27:57;63.75;;;27.05;;
32780;SDS011;19136;47.032;15.502;2022-12-18T15:30:23;58.97;;;26.10;;
32780;SDS011;19136;47.032;15.502;2022-12-18T15:32:50;64.13;;;26.65;;
32780;SDS011;19136;47.032;15.502;2022-12-18T15:35:18;63.45;;;26.38;;
32780;SDS011;19136;47.032;15.502;2022-12-18T15:37:44;66.88;;;27.10;;
32780;SDS011;19136;47.032;15.502;2022-12-18T15:40:17;62.95;;;26.13;;
32780;SDS011;19136;47.032;15.502;2022-12-18T15:42:47;62.85;;;25.35;;
32780;SDS011;19136;47.032;15.502;2022-12-18T15:45:32;64.57;;;26.58;;
32780;SDS011;19136;47.032;15.502;2022-12-18T15:47:58;64.60;;;25.85;;
32780;SDS011;19136;47.032;15.502;2022-12-18T15:50:25;69.82;;;26.85;;
32780;SDS011;19136;47.032;15.502;2022-12-18T15:52:51;68.78;;;27.90;;
32780;SDS011;19136;47.032;15.502;2022-12-18T15:55:20;61.30;;;26.33;;
32780;SDS011;19136;47.032;15.502;2022-12-18T15:58:07;69.90;;;26.75;;
32780;SDS011;19136;47.032;15.502;2022-12-18T16:00:34;69.28;;;28.63;;
32780;SDS011;19136;47.032;15.502;2022-12-18T16:03:02;78.07;;;29.17;;
32780;SDS011;19136;47.032;15.502;2022-12-18T16:05:29;65.97;;;27.20;;
32780;SDS011;19136;47.032;15.502;2022-12-18T16:07:56;61.17;;;26.33;;
32780;SDS011;19136;47.032;15.502;2022-12-18T16:10:24;60.97;;;26.38;;
32780;SDS011;19136;47.032;15.502;2022-12-18T16:12:50;66.32;;;27.67;;
32780;SDS011;19136;47.032;15.502;2022-12-18T16:15:16;73.28;;;28.20;;
32780;SDS011;19136;47.032;15.502;2022-12-18T16:17:42;73.18;;;29.20;;
32780;SDS011;19136;47.032;15.502;2022-12-18T16:20:27;67.28;;;28.60;;
32780;SDS011;19136;47.032;15.502;2022-12-18T16:22:53;68.65;;;29.02;;